sensor_id;sensor_type;location;lat;lon;timestamp;P1;durP1;ratioP1;P2;durP2;ratioP2
33954;SDS011;20233;50.804;7.126;2023-04-24T00:00:17;1.88;;;0.10;;
33954;SDS011;20233;50.804;7.126;2023-04-24T00:02:43;0.73;;;0.20;;
33954;SDS011;20233;50.804;7.126;2023-04-24T00:05:11;0.70;;;0.10;;
33954;SDS011;20233;50.804;7.126;2023-04-24T00:07:38;1.17;;;0.10;;
33954;SDS011;20233;50.804;7.126;2023-04-24T00:10:05;1.85;;;0.10;;
33954;SDS011;20233;50.804;7.126;2023-04-24T00:12:31;0.68;;;0.17;;
33954;SDS011;20233;50.804;7.126;2023-04-24T00:14:56;0.32;;;0.00;;
33954;SDS011;20233;50.804;7.126;2023-04-24T00:17:22;3.80;;;0.28;;
33954;SDS011;20233;50.804;7.126;2023-04-24T00:19:47;0.65;;;0.10;;
33954;SDS011;20233;50.804;7.126;2023-04-24T00:22:15;0.98;;;0.20;;
33954;SDS011;20233;50.804;7.126;2023-04-24T00:24:41;1.25;;;0.10;;
33954;SDS011;20233;50.804;7.126;2023-04-24T00:27:06;0.60;;;0.10;;
33954;SDS011;20233;50.804;7.126;2023-04-24T00:29:32;0.70;;;0.10;;
33954;SDS011;20233;50.804;7.126;2023-04-24T00:31:57;0.63;;;0.00;;
33954;SDS011;20233;50.804;7.126;2023-04-24T00:34:23;0.57;;;0.10;;
33954;SDS011;20233;50.804;7.126;2023-04-24T00:36:48;1.95;;;0.10;;
33954;SDS011;20233;50.804;7.126;2023-04-24T00:39:17;0.95;;;0.10;;
33954;SDS011;20233;50.804;7.126;2023-04-24T00:41:43;0.88;;;0.13;;
33954;SDS011;20233;50.804;7.126;2023-04-24T00:44:10;0.70;;;0.10;;
33954;SDS011;20233;50.804;7.126;2023-04-24T00:46:35;1.15;;;0.10;;
33954;SDS011;20233;50.804;7.126;2023-04-24T00:49:01;0.38;;;0.10;;
33954;SDS011;20233;50.804;7.126;2023-04-24T00:51:27;1.67;;;0.00;;
33954;SDS011;20233;50.804;7.126;2023-04-24T00:53:53;1.15;;;0.08;;
33954;SDS011;20233;50.804;7.126;2023-04-24T00:56:19;0.93;;;0.57;;
33954;SDS011;20233;50.804;7.126;2023-04-24T00:58:44;0.25;;;0.05;;
33954;SDS011;20233;50.804;7.126;2023-04-24T01:01:10;1.38;;;0.10;;
33954;SDS011;20233;50.804;7.126;2023-04-24T01:03:36;1.13;;;0.10;;
33954;SDS011;20233;50.804;7.126;2023-04-24T01:06:03;1.50;;;0.10;;
33954;SDS011;20233;50.804;7.126;2023-04-24T01:08:29;0.32;;;0.03;;
33954;SDS011;20233;50.804;7.126;2023-04-24T01:10:55;0.30;;;0.00;;
33954;SDS011;20233;50.804;7.126;2023-04-24T01:13:22;0.70;;;0.20;;
33954;SDS011;20233;50.804;7.126;2023-04-24T01:15:48;0.82;;;0.00;;
33954;SDS011;20233;50.804;7.126;2023-04-24T01:18:13;1.85;;;0.10;;
33954;SDS011;20233;50.804;7.126;2023-04-24T01:20:40;1.10;;;0.20;;
33954;SDS011;20233;50.804;7.126;2023-04-24T01:23:07;0.75;;;0.10;;
33954;SDS011;20233;50.804;7.126;2023-04-24T01:25:33;0.75;;;0.10;;
33954;SDS011;20233;50.804;7.126;2023-04-24T01:27:59;1.30;;;0.10;;
33954;SDS011;20233;50.804;7.126;2023-04-24T01:30:26;3.65;;;0.35;;
33954;SDS011;20233;50.804;7.126;2023-04-24T01:32:52;1.05;;;0.10;;
33954;SDS011;20233;50.804;7.126;2023-04-24T01:35:18;1.25;;;0.10;;
33954;SDS011;20233;50.804;7.126;2023-04-24T01:37:45;0.90;;;0.20;;
33954;SDS011;20233;50.804;7.126;2023-04-24T01:40:11;1.73;;;0.30;;
33954;SDS011;20233;50.804;7.126;2023-04-24T01:42:37;1.58;;;0.30;;
33954;SDS011;20233;50.804;7.126;2023-04-24T01:45:03;0.88;;;0.20;;
33954;SDS011;20233;50.804;7.126;2023-04-24T01:47:30;1.23;;;0.22;;
33954;SDS011;20233;50.804;7.126;2023-04-24T01:49:56;1.73;;;0.32;;
33954;SDS011;20233;50.804;7.126;2023-04-24T01:52:22;3.72;;;0.40;;
33954;SDS011;20233;50.804;7.126;2023-04-24T01:54:48;2.33;;;0.32;;
33954;SDS011;20233;50.804;7.126;2023-04-24T01:57:14;2.97;;;0.50;;
33954;SDS011;20233;50.804;7.126;2023-04-24T01:59:40;3.05;;;0.45;;
33954;SDS011;20233;50.804;7.126;2023-04-24T02:02:05;1.33;;;0.50;;
33954;SDS011;20233;50.804;7.126;2023-04-24T02:04:31;1.67;;;0.40;;
33954;SDS011;20233;50.804;7.126;2023-04-24T02:06:57;2.03;;;0.45;;
33954;SDS011;20233;50.804;7.126;2023-04-24T02:09:23;1.15;;;0.50;;
33954;SDS011;20233;50.804;7.126;2023-04-24T02:11:49;2.63;;;0.40;;
33954;SDS011;20233;50.804;7.126;2023-04-24T02:14:15;1.00;;;0.50;;
33954;SDS011;20233;50.804;7.126;2023-04-24T02:16:40;2.03;;;0.50;;
33954;SDS011;20233;50.804;7.126;2023-04-24T02:19:06;3.45;;;0.80;;
33954;SDS011;20233;50.804;7.126;2023-04-24T02:21:32;1.83;;;0.63;;
33954;SDS011;20233;50.804;7.126;2023-04-24T02:23:58;2.50;;;0.77;;
33954;SDS011;20233;50.804;7.126;2023-04-24T02:26:24;2.40;;;0.85;;
33954;SDS011;20233;50.804;7.126;2023-04-24T02:28:50;1.80;;;0.70;;
33954;SDS011;20233;50.804;7.126;2023-04-24T02:31:16;2.13;;;1.05;;
33954;SDS011;20233;50.804;7.126;2023-04-24T02:33:41;2.88;;;1.15;;
33954;SDS011;20233;50.804;7.126;2023-04-24T02:36:07;4.10;;;1.65;;
33954;SDS011;20233;50.804;7.126;2023-04-24T02:38:32;3.00;;;1.80;;
33954;SDS011;20233;50.804;7.126;2023-04-24T02:40:58;3.90;;;2.45;;
33954;SDS011;20233;50.804;7.126;2023-04-24T02:43:23;3.42;;;2.38;;
33954;SDS011;20233;50.804;7.126;2023-04-24T02:45:49;5.00;;;2.65;;
33954;SDS011;20233;50.804;7.126;2023-04-24T02:48:14;5.57;;;3.30;;
33954;SDS011;20233;50.804;7.126;2023-04-24T02:50:40;4.57;;;2.95;;
33954;SDS011;20233;50.804;7.126;2023-04-24T02:53:05;4.80;;;2.90;;
33954;SDS011;20233;50.804;7.126;2023-04-24T02:55:31;6.38;;;2.95;;
33954;SDS011;20233;50.804;7.126;2023-04-24T02:57:57;4.80;;;3.08;;
33954;SDS011;20233;50.804;7.126;2023-04-24T03:00:22;6.70;;;2.90;;
33954;SDS011;20233;50.804;7.126;2023-04-24T03:02:48;4.97;;;2.47;;
33954;SDS011;20233;50.804;7.126;2023-04-24T03:05:14;9.30;;;3.35;;
33954;SDS011;20233;50.804;7.126;2023-04-24T03:07:40;6.15;;;3.33;;
33954;SDS011;20233;50.804;7.126;2023-04-24T03:10:06;5.80;;;3.33;;
33954;SDS011;20233;50.804;7.126;2023-04-24T03:12:32;8.73;;;3.40;;
33954;SDS011;20233;50.804;7.126;2023-04-24T03:14:58;4.38;;;2.88;;
33954;SDS011;20233;50.804;7.126;2023-04-24T03:17:23;6.40;;;3.03;;
33954;SDS011;20233;50.804;7.126;2023-04-24T03:19:49;3.65;;;2.55;;
33954;SDS011;20233;50.804;7.126;2023-04-24T03:22:15;5.50;;;3.17;;
33954;SDS011;20233;50.804;7.126;2023-04-24T03:24:40;5.75;;;3.00;;
33954;SDS011;20233;50.804;7.126;2023-04-24T03:27:06;4.35;;;2.72;;
33954;SDS011;20233;50.804;7.126;2023-04-24T03:29:31;4.72;;;2.75;;
33954;SDS011;20233;50.804;7.126;2023-04-24T03:31:57;4.38;;;2.60;;
33954;SDS011;20233;50.804;7.126;2023-04-24T03:34:23;4.88;;;2.85;;
33954;SDS011;20233;50.804;7.126;2023-04-24T03:36:48;5.00;;;2.55;;
33954;SDS011;20233;50.804;7.126;2023-04-24T03:39:14;5.40;;;2.28;;
33954;SDS011;20233;50.804;7.126;2023-04-24T03:41:39;5.97;;;2.95;;
33954;SDS011;20233;50.804;7.126;2023-04-24T03:44:05;6.43;;;3.60;;
33954;SDS011;20233;50.804;7.126;2023-04-24T03:46:31;4.88;;;2.83;;
33954;SDS011;20233;50.804;7.126;2023-04-24T03:48:58;5.93;;;3.22;;
33954;SDS011;20233;50.804;7.126;2023-04-24T03:51:23;5.00;;;3.42;;
33954;SDS011;20233;50.804;7.126;2023-04-24T03:53:49;6.05;;;3.22;;
33954;SDS011;20233;50.804;7.126;2023-04-24T03:56:14;4.85;;;2.83;;
33954;SDS011;20233;50.804;7.126;2023-04-24T03:58:40;5.82;;;2.72;;
33954;SDS011;20233;50.804;7.126;2023-04-24T04:01:05;6.78;;;3.58;;
33954;SDS011;20233;50.804;7.126;2023-04-24T04:03:31;5.82;;;3.95;;
33954;SDS011;20233;50.804;7.126;2023-04-24T04:05:57;6.38;;;3.83;;
33954;SDS011;20233;50.804;7.126;2023-04-24T04:08:22;5.57;;;3.60;;
33954;SDS011;20233;50.804;7.126;2023-04-24T04:10:48;5.40;;;3.30;;
33954;SDS011;20233;50.804;7.126;2023-04-24T04:13:13;5.60;;;3.22;;
33954;SDS011;20233;50.804;7.126;2023-04-24T04:15:39;6.07;;;3.30;;
33954;SDS011;20233;50.804;7.126;2023-04-24T04:18:05;4.70;;;3.40;;
33954;SDS011;20233;50.804;7.126;2023-04-24T04:20:30;4.88;;;3.30;;
33954;SDS011;20233;50.804;7.126;2023-04-24T04:22:56;7.93;;;4.18;;
33954;SDS011;20233;50.804;7.126;2023-04-24T04:25:21;7.50;;;3.47;;
33954;SDS011;20233;50.804;7.126;2023-04-24T04:27:48;6.53;;;3.60;;
33954;SDS011;20233;50.804;7.126;2023-04-24T04:30:13;5.03;;;3.83;;
33954;SDS011;20233;50.804;7.126;2023-04-24T04:32:39;7.32;;;4.05;;
33954;SDS011;20233;50.804;7.126;2023-04-24T04:35:05;7.25;;;3.60;;
33954;SDS011;20233;50.804;7.126;2023-04-24T04:37:31;7.93;;;4.38;;
33954;SDS011;20233;50.804;7.126;2023-04-24T04:40:00;5.03;;;3.85;;
33954;SDS011;20233;50.804;7.126;2023-04-24T04:42:31;5.63;;;4.20;;
33954;SDS011;20233;50.804;7.126;2023-04-24T04:44:57;5.70;;;3.78;;
33954;SDS011;20233;50.804;7.126;2023-04-24T04:47:23;6.10;;;3.30;;
33954;SDS011;20233;50.804;7.126;2023-04-24T04:49:49;6.90;;;3.63;;
33954;SDS011;20233;50.804;7.126;2023-04-24T04:52:16;4.82;;;3.10;;
33954;SDS011;20233;50.804;7.126;2023-04-24T04:54:42;5.53;;;3.20;;
33954;SDS011;20233;50.804;7.126;2023-04-24T04:57:08;4.70;;;3.17;;
33954;SDS011;20233;50.804;7.126;2023-04-24T04:59:34;5.90;;;4.10;;
33954;SDS011;20233;50.804;7.126;2023-04-24T05:02:00;5.30;;;3.50;;
33954;SDS011;20233;50.804;7.126;2023-04-24T05:04:26;7.95;;;3.67;;
33954;SDS011;20233;50.804;7.126;2023-04-24T05:06:54;7.22;;;3.78;;
33954;SDS011;20233;50.804;7.126;2023-04-24T05:09:22;5.38;;;3.45;;
33954;SDS011;20233;50.804;7.126;2023-04-24T05:11:52;5.57;;;3.07;;
33954;SDS011;20233;50.804;7.126;2023-04-24T05:14:22;5.07;;;3.60;;
33954;SDS011;20233;50.804;7.126;2023-04-24T05:16:49;6.05;;;3.35;;
33954;SDS011;20233;50.804;7.126;2023-04-24T05:19:17;4.88;;;3.75;;
33954;SDS011;20233;50.804;7.126;2023-04-24T05:21:45;7.47;;;3.15;;
33954;SDS011;20233;50.804;7.126;2023-04-24T05:24:13;5.95;;;3.50;;
33954;SDS011;20233;50.804;7.126;2023-04-24T05:26:40;6.10;;;3.60;;
33954;SDS011;20233;50.804;7.126;2023-04-24T05:29:08;5.38;;;3.55;;
33954;SDS011;20233;50.804;7.126;2023-04-24T05:31:36;5.85;;;3.58;;
33954;SDS011;20233;50.804;7.126;2023-04-24T05:34:03;6.15;;;3.33;;
33954;SDS011;20233;50.804;7.126;2023-04-24T05:36:30;5.20;;;2.88;;
33954;SDS011;20233;50.804;7.126;2023-04-24T05:38:57;5.13;;;2.83;;
33954;SDS011;20233;50.804;7.126;2023-04-24T05:41:25;7.00;;;3.05;;
33954;SDS011;20233;50.804;7.126;2023-04-24T05:43:52;4.55;;;3.38;;
33954;SDS011;20233;50.804;7.126;2023-04-24T05:46:19;6.10;;;3.22;;
33954;SDS011;20233;50.804;7.126;2023-04-24T05:48:46;5.13;;;3.00;;
33954;SDS011;20233;50.804;7.126;2023-04-24T05:51:14;5.72;;;3.25;;
33954;SDS011;20233;50.804;7.126;2023-04-24T05:53:42;6.65;;;2.90;;
33954;SDS011;20233;50.804;7.126;2023-04-24T05:56:11;4.13;;;3.40;;
33954;SDS011;20233;50.804;7.126;2023-04-24T05:58:39;3.97;;;2.88;;
33954;SDS011;20233;50.804;7.126;2023-04-24T06:01:06;5.30;;;3.25;;
33954;SDS011;20233;50.804;7.126;2023-04-24T06:03:33;4.93;;;3.10;;
33954;SDS011;20233;50.804;7.126;2023-04-24T06:06:00;5.80;;;3.10;;
33954;SDS011;20233;50.804;7.126;2023-04-24T06:08:27;7.22;;;3.22;;
33954;SDS011;20233;50.804;7.126;2023-04-24T06:10:55;5.35;;;3.50;;
33954;SDS011;20233;50.804;7.126;2023-04-24T06:13:22;4.25;;;3.22;;
33954;SDS011;20233;50.804;7.126;2023-04-24T06:15:50;4.95;;;3.65;;
33954;SDS011;20233;50.804;7.126;2023-04-24T06:18:19;4.57;;;3.20;;
33954;SDS011;20233;50.804;7.126;2023-04-24T06:20:47;5.25;;;3.80;;
33954;SDS011;20233;50.804;7.126;2023-04-24T06:23:15;5.47;;;3.58;;
33954;SDS011;20233;50.804;7.126;2023-04-24T06:25:43;4.60;;;3.47;;
33954;SDS011;20233;50.804;7.126;2023-04-24T06:28:12;6.03;;;3.97;;
33954;SDS011;20233;50.804;7.126;2023-04-24T06:30:39;6.30;;;3.78;;
33954;SDS011;20233;50.804;7.126;2023-04-24T06:33:07;7.72;;;4.03;;
33954;SDS011;20233;50.804;7.126;2023-04-24T06:35:34;8.45;;;4.47;;
33954;SDS011;20233;50.804;7.126;2023-04-24T06:38:03;6.82;;;4.15;;
33954;SDS011;20233;50.804;7.126;2023-04-24T06:40:29;9.77;;;4.78;;
33954;SDS011;20233;50.804;7.126;2023-04-24T06:42:55;7.55;;;4.68;;
33954;SDS011;20233;50.804;7.126;2023-04-24T06:45:23;6.10;;;4.22;;
33954;SDS011;20233;50.804;7.126;2023-04-24T06:47:50;6.93;;;4.88;;
33954;SDS011;20233;50.804;7.126;2023-04-24T06:50:17;7.80;;;5.03;;
33954;SDS011;20233;50.804;7.126;2023-04-24T06:52:45;7.57;;;4.80;;
33954;SDS011;20233;50.804;7.126;2023-04-24T06:55:12;8.73;;;5.25;;
33954;SDS011;20233;50.804;7.126;2023-04-24T06:57:40;5.60;;;4.18;;
33954;SDS011;20233;50.804;7.126;2023-04-24T07:00:09;7.28;;;4.07;;
33954;SDS011;20233;50.804;7.126;2023-04-24T07:02:38;8.38;;;3.97;;
33954;SDS011;20233;50.804;7.126;2023-04-24T07:05:04;5.28;;;2.50;;
33954;SDS011;20233;50.804;7.126;2023-04-24T07:07:34;4.97;;;2.42;;
33954;SDS011;20233;50.804;7.126;2023-04-24T07:10:03;5.45;;;2.53;;
33954;SDS011;20233;50.804;7.126;2023-04-24T07:12:30;3.80;;;2.05;;
33954;SDS011;20233;50.804;7.126;2023-04-24T07:14:57;5.38;;;2.50;;
33954;SDS011;20233;50.804;7.126;2023-04-24T07:17:24;4.60;;;2.20;;
33954;SDS011;20233;50.804;7.126;2023-04-24T07:19:51;3.92;;;2.47;;
33954;SDS011;20233;50.804;7.126;2023-04-24T07:22:22;3.05;;;2.30;;
33954;SDS011;20233;50.804;7.126;2023-04-24T07:24:49;2.47;;;1.17;;
33954;SDS011;20233;50.804;7.126;2023-04-24T07:27:16;3.85;;;0.90;;
33954;SDS011;20233;50.804;7.126;2023-04-24T07:29:43;2.83;;;1.08;;
33954;SDS011;20233;50.804;7.126;2023-04-24T07:32:11;2.40;;;1.20;;
33954;SDS011;20233;50.804;7.126;2023-04-24T07:34:38;2.47;;;0.88;;
33954;SDS011;20233;50.804;7.126;2023-04-24T07:37:06;2.85;;;1.20;;
33954;SDS011;20233;50.804;7.126;2023-04-24T07:39:32;2.97;;;1.02;;
33954;SDS011;20233;50.804;7.126;2023-04-24T07:41:59;1.48;;;0.50;;
33954;SDS011;20233;50.804;7.126;2023-04-24T07:44:26;1.30;;;0.52;;
33954;SDS011;20233;50.804;7.126;2023-04-24T07:46:53;4.65;;;0.43;;
33954;SDS011;20233;50.804;7.126;2023-04-24T07:49:22;1.35;;;0.60;;
33954;SDS011;20233;50.804;7.126;2023-04-24T07:51:49;1.40;;;0.63;;
33954;SDS011;20233;50.804;7.126;2023-04-24T07:54:17;1.10;;;0.30;;
33954;SDS011;20233;50.804;7.126;2023-04-24T07:56:44;1.50;;;0.40;;
33954;SDS011;20233;50.804;7.126;2023-04-24T07:59:11;3.80;;;0.63;;
33954;SDS011;20233;50.804;7.126;2023-04-24T08:01:38;1.55;;;0.40;;
33954;SDS011;20233;50.804;7.126;2023-04-24T08:04:07;2.85;;;0.47;;
33954;SDS011;20233;50.804;7.126;2023-04-24T08:06:35;2.25;;;0.30;;
33954;SDS011;20233;50.804;7.126;2023-04-24T08:09:02;2.75;;;0.50;;
33954;SDS011;20233;50.804;7.126;2023-04-24T08:11:28;4.55;;;0.40;;
33954;SDS011;20233;50.804;7.126;2023-04-24T08:13:55;3.22;;;0.35;;
33954;SDS011;20233;50.804;7.126;2023-04-24T08:16:22;1.98;;;0.30;;
33954;SDS011;20233;50.804;7.126;2023-04-24T08:18:52;1.10;;;0.40;;
33954;SDS011;20233;50.804;7.126;2023-04-24T08:21:18;1.15;;;0.45;;
33954;SDS011;20233;50.804;7.126;2023-04-24T08:23:47;0.98;;;0.30;;
33954;SDS011;20233;50.804;7.126;2023-04-24T08:26:15;4.80;;;0.73;;
33954;SDS011;20233;50.804;7.126;2023-04-24T08:28:42;2.17;;;0.30;;
33954;SDS011;20233;50.804;7.126;2023-04-24T08:31:09;3.17;;;0.40;;
33954;SDS011;20233;50.804;7.126;2023-04-24T08:33:36;2.58;;;0.45;;
33954;SDS011;20233;50.804;7.126;2023-04-24T08:36:03;4.65;;;0.40;;
33954;SDS011;20233;50.804;7.126;2023-04-24T08:38:30;2.75;;;0.40;;
33954;SDS011;20233;50.804;7.126;2023-04-24T08:40:58;1.17;;;0.40;;
33954;SDS011;20233;50.804;7.126;2023-04-24T08:43:27;4.22;;;0.50;;
33954;SDS011;20233;50.804;7.126;2023-04-24T08:45:55;2.55;;;0.40;;
33954;SDS011;20233;50.804;7.126;2023-04-24T08:48:24;1.13;;;0.38;;
33954;SDS011;20233;50.804;7.126;2023-04-24T08:50:52;3.22;;;0.40;;
33954;SDS011;20233;50.804;7.126;2023-04-24T08:53:24;1.20;;;0.73;;
33954;SDS011;20233;50.804;7.126;2023-04-24T08:55:52;0.80;;;0.20;;
33954;SDS011;20233;50.804;7.126;2023-04-24T08:58:21;2.20;;;0.25;;
33954;SDS011;20233;50.804;7.126;2023-04-24T09:00:53;2.90;;;0.60;;
33954;SDS011;20233;50.804;7.126;2023-04-24T09:03:21;1.48;;;0.40;;
33954;SDS011;20233;50.804;7.126;2023-04-24T09:05:51;1.83;;;0.40;;
33954;SDS011;20233;50.804;7.126;2023-04-24T09:08:20;2.70;;;0.70;;
33954;SDS011;20233;50.804;7.126;2023-04-24T09:10:51;2.28;;;0.52;;
33954;SDS011;20233;50.804;7.126;2023-04-24T09:13:19;2.10;;;0.50;;
33954;SDS011;20233;50.804;7.126;2023-04-24T09:15:46;5.53;;;4.22;;
33954;SDS011;20233;50.804;7.126;2023-04-24T09:18:14;3.78;;;0.98;;
33954;SDS011;20233;50.804;7.126;2023-04-24T09:20:57;2.25;;;1.13;;
33954;SDS011;20233;50.804;7.126;2023-04-24T09:23:31;2.83;;;1.10;;
33954;SDS011;20233;50.804;7.126;2023-04-24T09:25:58;3.40;;;1.27;;
33954;SDS011;20233;50.804;7.126;2023-04-24T09:28:32;3.53;;;1.33;;
33954;SDS011;20233;50.804;7.126;2023-04-24T09:33:29;3.58;;;1.30;;
33954;SDS011;20233;50.804;7.126;2023-04-24T09:35:58;4.22;;;2.20;;
33954;SDS011;20233;50.804;7.126;2023-04-24T09:38:59;3.28;;;1.65;;
33954;SDS011;20233;50.804;7.126;2023-04-24T09:41:22;3.92;;;1.90;;
33954;SDS011;20233;50.804;7.126;2023-04-24T09:43:49;4.22;;;2.20;;
33954;SDS011;20233;50.804;7.126;2023-04-24T09:46:16;8.82;;;1.80;;
33954;SDS011;20233;50.804;7.126;2023-04-24T09:48:45;3.38;;;1.80;;
33954;SDS011;20233;50.804;7.126;2023-04-24T09:51:12;4.63;;;2.10;;
33954;SDS011;20233;50.804;7.126;2023-04-24T09:53:45;5.28;;;2.15;;
33954;SDS011;20233;50.804;7.126;2023-04-24T09:56:13;5.30;;;2.17;;
33954;SDS011;20233;50.804;7.126;2023-04-24T09:58:40;3.60;;;2.00;;
33954;SDS011;20233;50.804;7.126;2023-04-24T10:01:07;5.25;;;2.67;;
33954;SDS011;20233;50.804;7.126;2023-04-24T10:03:35;6.20;;;2.60;;
33954;SDS011;20233;50.804;7.126;2023-04-24T10:06:03;4.00;;;2.22;;
33954;SDS011;20233;50.804;7.126;2023-04-24T10:08:36;5.93;;;2.75;;
33954;SDS011;20233;50.804;7.126;2023-04-24T10:11:03;4.82;;;2.80;;
33954;SDS011;20233;50.804;7.126;2023-04-24T10:13:30;7.18;;;2.78;;
33954;SDS011;20233;50.804;7.126;2023-04-24T10:15:58;4.53;;;2.58;;
33954;SDS011;20233;50.804;7.126;2023-04-24T10:18:27;5.10;;;3.00;;
33954;SDS011;20233;50.804;7.126;2023-04-24T10:20:55;6.47;;;2.65;;
33954;SDS011;20233;50.804;7.126;2023-04-24T10:23:23;5.95;;;2.10;;
33954;SDS011;20233;50.804;7.126;2023-04-24T10:25:52;7.55;;;2.88;;
33954;SDS011;20233;50.804;7.126;2023-04-24T10:28:27;6.35;;;2.40;;
33954;SDS011;20233;50.804;7.126;2023-04-24T10:30:55;5.03;;;2.10;;
33954;SDS011;20233;50.804;7.126;2023-04-24T10:33:22;4.82;;;2.35;;
33954;SDS011;20233;50.804;7.126;2023-04-24T10:35:49;4.60;;;1.67;;
33954;SDS011;20233;50.804;7.126;2023-04-24T10:38:18;10.18;;;2.42;;
33954;SDS011;20233;50.804;7.126;2023-04-24T10:40:50;5.50;;;2.45;;
33954;SDS011;20233;50.804;7.126;2023-04-24T10:43:16;5.50;;;2.63;;
33954;SDS011;20233;50.804;7.126;2023-04-24T10:46:01;4.88;;;2.53;;
33954;SDS011;20233;50.804;7.126;2023-04-24T10:48:29;4.45;;;2.33;;
33954;SDS011;20233;50.804;7.126;2023-04-24T10:50:58;5.13;;;2.00;;
33954;SDS011;20233;50.804;7.126;2023-04-24T10:53:29;6.05;;;2.50;;
33954;SDS011;20233;50.804;7.126;2023-04-24T10:58:40;5.45;;;2.72;;
33954;SDS011;20233;50.804;7.126;2023-04-24T11:01:29;7.80;;;2.80;;
33954;SDS011;20233;50.804;7.126;2023-04-24T11:04:02;7.50;;;2.50;;
33954;SDS011;20233;50.804;7.126;2023-04-24T11:06:29;9.20;;;2.97;;
33954;SDS011;20233;50.804;7.126;2023-04-24T11:09:07;6.32;;;2.80;;
33954;SDS011;20233;50.804;7.126;2023-04-24T11:14:10;7.65;;;3.33;;
33954;SDS011;20233;50.804;7.126;2023-04-24T11:16:45;9.13;;;3.28;;
33954;SDS011;20233;50.804;7.126;2023-04-24T11:19:23;8.60;;;3.20;;
33954;SDS011;20233;50.804;7.126;2023-04-24T11:22:04;7.13;;;3.50;;
33954;SDS011;20233;50.804;7.126;2023-04-24T11:24:40;10.48;;;4.63;;
33954;SDS011;20233;50.804;7.126;2023-04-24T11:27:14;7.43;;;4.18;;
33954;SDS011;20233;50.804;7.126;2023-04-24T11:29:59;11.88;;;4.80;;
33954;SDS011;20233;50.804;7.126;2023-04-24T11:32:30;10.65;;;4.60;;
33954;SDS011;20233;50.804;7.126;2023-04-24T11:37:47;6.90;;;4.72;;
33954;SDS011;20233;50.804;7.126;2023-04-24T11:40:15;12.65;;;5.07;;
33954;SDS011;20233;50.804;7.126;2023-04-24T11:42:51;13.25;;;5.03;;
33954;SDS011;20233;50.804;7.126;2023-04-24T11:45:24;10.32;;;4.50;;
33954;SDS011;20233;50.804;7.126;2023-04-24T11:47:53;12.00;;;5.47;;
33954;SDS011;20233;50.804;7.126;2023-04-24T11:50:21;8.68;;;4.18;;
33954;SDS011;20233;50.804;7.126;2023-04-24T11:57:50;10.65;;;3.65;;
33954;SDS011;20233;50.804;7.126;2023-04-24T12:00:23;6.22;;;2.88;;
33954;SDS011;20233;50.804;7.126;2023-04-24T12:02:53;7.65;;;2.75;;
33954;SDS011;20233;50.804;7.126;2023-04-24T12:05:33;8.55;;;2.97;;
33954;SDS011;20233;50.804;7.126;2023-04-24T12:08:04;10.20;;;3.50;;
33954;SDS011;20233;50.804;7.126;2023-04-24T12:10:32;10.82;;;4.13;;
33954;SDS011;20233;50.804;7.126;2023-04-24T12:12:59;12.05;;;4.63;;
33954;SDS011;20233;50.804;7.126;2023-04-24T12:15:26;7.65;;;3.63;;
33954;SDS011;20233;50.804;7.126;2023-04-24T12:17:54;10.80;;;4.50;;
33954;SDS011;20233;50.804;7.126;2023-04-24T12:20:26;7.85;;;4.53;;
33954;SDS011;20233;50.804;7.126;2023-04-24T12:22:57;13.25;;;4.40;;
33954;SDS011;20233;50.804;7.126;2023-04-24T12:25:33;12.15;;;4.80;;
33954;SDS011;20233;50.804;7.126;2023-04-24T12:30:32;9.43;;;4.40;;
33954;SDS011;20233;50.804;7.126;2023-04-24T12:33:02;11.32;;;5.03;;
33954;SDS011;20233;50.804;7.126;2023-04-24T12:35:29;14.35;;;4.75;;
33954;SDS011;20233;50.804;7.126;2023-04-24T12:38:07;12.20;;;4.88;;
33954;SDS011;20233;50.804;7.126;2023-04-24T12:40:35;9.77;;;5.20;;
33954;SDS011;20233;50.804;7.126;2023-04-24T12:43:12;9.85;;;5.25;;
33954;SDS011;20233;50.804;7.126;2023-04-24T12:45:43;10.70;;;4.93;;
33954;SDS011;20233;50.804;7.126;2023-04-24T12:48:11;15.55;;;5.57;;
33954;SDS011;20233;50.804;7.126;2023-04-24T12:50:42;10.15;;;5.90;;
33954;SDS011;20233;50.804;7.126;2023-04-24T12:53:09;10.60;;;5.05;;
33954;SDS011;20233;50.804;7.126;2023-04-24T12:55:36;13.75;;;5.80;;
33954;SDS011;20233;50.804;7.126;2023-04-24T12:58:03;12.82;;;4.97;;
33954;SDS011;20233;50.804;7.126;2023-04-24T13:00:30;9.68;;;3.92;;
33954;SDS011;20233;50.804;7.126;2023-04-24T13:02:56;12.43;;;4.07;;
33954;SDS011;20233;50.804;7.126;2023-04-24T13:05:22;8.13;;;3.80;;
33954;SDS011;20233;50.804;7.126;2023-04-24T13:07:52;13.70;;;5.70;;
33954;SDS011;20233;50.804;7.126;2023-04-24T13:10:19;13.65;;;4.90;;
33954;SDS011;20233;50.804;7.126;2023-04-24T13:12:47;13.18;;;5.07;;
33954;SDS011;20233;50.804;7.126;2023-04-24T13:15:14;11.18;;;5.10;;
33954;SDS011;20233;50.804;7.126;2023-04-24T13:17:41;12.00;;;5.05;;
33954;SDS011;20233;50.804;7.126;2023-04-24T13:20:08;10.18;;;4.55;;
33954;SDS011;20233;50.804;7.126;2023-04-24T13:22:35;10.38;;;4.15;;
33954;SDS011;20233;50.804;7.126;2023-04-24T13:25:02;9.35;;;3.72;;
33954;SDS011;20233;50.804;7.126;2023-04-24T13:27:31;10.10;;;4.88;;
33954;SDS011;20233;50.804;7.126;2023-04-24T13:29:58;10.23;;;3.60;;
33954;SDS011;20233;50.804;7.126;2023-04-24T13:32:24;11.18;;;4.45;;
33954;SDS011;20233;50.804;7.126;2023-04-24T13:34:51;6.63;;;3.88;;
33954;SDS011;20233;50.804;7.126;2023-04-24T13:37:18;11.57;;;4.03;;
33954;SDS011;20233;50.804;7.126;2023-04-24T13:39:46;11.02;;;4.25;;
33954;SDS011;20233;50.804;7.126;2023-04-24T13:42:13;10.35;;;3.60;;
33954;SDS011;20233;50.804;7.126;2023-04-24T13:44:39;8.68;;;3.55;;
33954;SDS011;20233;50.804;7.126;2023-04-24T13:47:06;11.27;;;3.78;;
33954;SDS011;20233;50.804;7.126;2023-04-24T13:49:33;13.48;;;4.97;;
33954;SDS011;20233;50.804;7.126;2023-04-24T13:52:01;11.32;;;4.70;;
33954;SDS011;20233;50.804;7.126;2023-04-24T13:54:28;7.65;;;4.28;;
33954;SDS011;20233;50.804;7.126;2023-04-24T13:59:26;9.82;;;4.60;;
33954;SDS011;20233;50.804;7.126;2023-04-24T14:01:53;10.57;;;4.88;;
33954;SDS011;20233;50.804;7.126;2023-04-24T14:04:22;10.57;;;4.60;;
33954;SDS011;20233;50.804;7.126;2023-04-24T14:06:49;10.05;;;4.45;;
33954;SDS011;20233;50.804;7.126;2023-04-24T14:09:28;9.49;;;4.22;;
33954;SDS011;20233;50.804;7.126;2023-04-24T14:11:58;10.32;;;4.60;;
33954;SDS011;20233;50.804;7.126;2023-04-24T14:14:27;7.03;;;3.95;;
33954;SDS011;20233;50.804;7.126;2023-04-24T14:16:55;8.95;;;4.22;;
33954;SDS011;20233;50.804;7.126;2023-04-24T14:19:22;10.55;;;4.40;;
33954;SDS011;20233;50.804;7.126;2023-04-24T14:24:34;9.50;;;4.10;;
33954;SDS011;20233;50.804;7.126;2023-04-24T14:27:30;8.23;;;3.42;;
33954;SDS011;20233;50.804;7.126;2023-04-24T14:30:07;10.25;;;4.20;;
33954;SDS011;20233;50.804;7.126;2023-04-24T14:32:45;9.07;;;4.15;;
33954;SDS011;20233;50.804;7.126;2023-04-24T14:35:37;8.40;;;3.17;;
33954;SDS011;20233;50.804;7.126;2023-04-24T14:38:20;13.43;;;4.60;;
33954;SDS011;20233;50.804;7.126;2023-04-24T14:40:57;8.93;;;3.65;;
33954;SDS011;20233;50.804;7.126;2023-04-24T14:43:36;8.07;;;3.60;;
33954;SDS011;20233;50.804;7.126;2023-04-24T14:46:20;11.18;;;4.78;;
33954;SDS011;20233;50.804;7.126;2023-04-24T14:49:10;10.77;;;4.05;;
33954;SDS011;20233;50.804;7.126;2023-04-24T14:51:50;9.38;;;3.95;;
33954;SDS011;20233;50.804;7.126;2023-04-24T14:54:18;6.65;;;2.90;;
33954;SDS011;20233;50.804;7.126;2023-04-24T14:56:49;7.32;;;2.95;;
33954;SDS011;20233;50.804;7.126;2023-04-24T14:59:15;8.75;;;4.05;;
33954;SDS011;20233;50.804;7.126;2023-04-24T15:01:40;6.07;;;2.92;;
33954;SDS011;20233;50.804;7.126;2023-04-24T15:04:06;7.95;;;3.05;;
33954;SDS011;20233;50.804;7.126;2023-04-24T15:06:32;6.72;;;3.17;;
33954;SDS011;20233;50.804;7.126;2023-04-24T15:08:58;7.18;;;3.00;;
33954;SDS011;20233;50.804;7.126;2023-04-24T15:11:25;5.20;;;2.72;;
33954;SDS011;20233;50.804;7.126;2023-04-24T15:13:55;6.72;;;3.30;;